createdAt,value
2022-11-25T00:00:33.826Z,2.60
2022-11-25T00:03:37.365Z,3.10
2022-11-25T00:06:40.274Z,3.17
2022-11-25T00:09:43.151Z,3.00
2022-11-25T00:12:47.405Z,3.23
2022-11-25T00:15:50.286Z,3.27
2022-11-25T00:18:55.419Z,2.83
2022-11-25T00:21:58.296Z,3.17
2022-11-25T00:25:01.217Z,2.47
2022-11-25T00:28:05.519Z,2.50
2022-11-25T00:31:09.573Z,2.10
2022-11-25T00:34:14.692Z,3.07
2022-11-25T00:37:17.640Z,2.83
2022-11-25T00:40:20.507Z,2.67
2022-11-25T00:43:42.655Z,2.20
2022-11-25T00:46:45.534Z,2.73
2022-11-25T00:49:50.159Z,2.90
2022-11-25T00:52:53.019Z,2.00
2022-11-25T00:56:14.062Z,2.77
2022-11-25T00:59:18.590Z,2.50
2022-11-25T01:02:21.962Z,2.70
2022-11-25T01:05:24.951Z,2.40
2022-11-25T01:08:27.888Z,2.30
2022-11-25T01:11:30.796Z,2.10
2022-11-25T01:14:36.290Z,2.10
2022-11-25T01:17:39.543Z,2.30
2022-11-25T01:20:42.452Z,1.87
2022-11-25T01:23:46.265Z,2.07
2022-11-25T01:26:49.128Z,2.10
2022-11-25T01:29:53.367Z,2.53
2022-11-25T01:32:56.394Z,2.03
2022-11-25T01:36:03.649Z,1.90
2022-11-25T01:39:06.779Z,2.30
2022-11-25T01:42:09.898Z,2.80
2022-11-25T01:45:34.763Z,2.20
2022-11-25T01:48:43.811Z,2.27
2022-11-25T01:51:52.334Z,2.47
2022-11-25T01:55:00.896Z,2.13
2022-11-25T01:58:07.140Z,2.40
2022-11-25T02:01:11.803Z,2.03
2022-11-25T02:04:18.108Z,1.87
2022-11-25T02:07:28.277Z,2.17
2022-11-25T02:10:33.867Z,2.63
2022-11-25T02:13:37.866Z,2.50
2022-11-25T02:16:42.127Z,2.40
2022-11-25T02:19:57.493Z,2.00
2022-11-25T02:23:07.988Z,2.23
2022-11-25T02:26:12.883Z,2.77
2022-11-25T02:29:15.850Z,2.43
2022-11-25T02:32:23.079Z,2.50
2022-11-25T02:35:32.737Z,2.33
2022-11-25T02:38:40.489Z,2.43
2022-11-25T02:41:48.854Z,2.50
2022-11-25T02:44:51.736Z,2.50
2022-11-25T02:47:54.641Z,2.43
2022-11-25T02:50:58.277Z,2.20
2022-11-25T02:54:01.983Z,2.43
2022-11-25T02:57:06.250Z,2.60
2022-11-25T03:00:10.153Z,2.63
2022-11-25T03:03:13.457Z,2.23
2022-11-25T03:06:16.665Z,2.57
2022-11-25T03:09:19.596Z,2.60
2022-11-25T03:12:23.906Z,2.40
2022-11-25T03:15:26.860Z,1.77
2022-11-25T03:18:29.832Z,3.10
2022-11-25T03:21:32.932Z,2.33
2022-11-25T03:24:36.126Z,2.70
2022-11-25T03:27:42.163Z,3.43
2022-11-25T03:30:45.095Z,2.83
2022-11-25T03:33:47.954Z,3.13
2022-11-25T03:36:50.947Z,2.10
2022-11-25T03:39:53.899Z,2.83
2022-11-25T03:42:58.204Z,2.70
2022-11-25T03:46:01.159Z,2.13
2022-11-25T03:49:04.535Z,1.80
2022-11-25T03:52:07.430Z,2.33
2022-11-25T03:55:12.935Z,1.93
2022-11-25T03:58:17.201Z,2.20
2022-11-25T04:01:20.169Z,2.37
2022-11-25T04:04:23.132Z,1.90
2022-11-25T04:07:26.175Z,2.40
2022-11-25T04:10:29.108Z,2.37
2022-11-25T04:13:33.363Z,2.70
2022-11-25T04:16:36.402Z,2.23
2022-11-25T04:19:39.358Z,2.30
2022-11-25T04:22:42.524Z,2.30
2022-11-25T04:25:45.395Z,2.00
2022-11-25T04:28:49.634Z,1.83
2022-11-25T04:31:52.512Z,2.47
2022-11-25T04:34:55.441Z,2.17
2022-11-25T04:37:58.320Z,2.10
2022-11-25T04:41:01.188Z,2.20
2022-11-25T04:44:05.773Z,2.27
2022-11-25T04:47:08.743Z,2.90
2022-11-25T04:50:15.516Z,2.70
2022-11-25T04:53:18.508Z,3.00
2022-11-25T04:56:22.141Z,2.50
2022-11-25T04:59:41.249Z,2.23
2022-11-25T05:02:44.239Z,2.30
2022-11-25T05:05:47.227Z,2.30
2022-11-25T05:08:50.938Z,2.23
2022-11-25T05:11:53.832Z,3.17
2022-11-25T05:14:58.465Z,2.70
2022-11-25T05:18:01.381Z,2.83
2022-11-25T05:21:04.834Z,2.57
2022-11-25T05:24:07.910Z,2.53
2022-11-25T05:27:11.483Z,3.10
2022-11-25T05:30:16.104Z,3.37
2022-11-25T05:33:19.092Z,3.20
2022-11-25T05:36:21.988Z,3.30
2022-11-25T05:39:24.874Z,2.60
2022-11-25T05:42:29.948Z,2.60
2022-11-25T05:45:34.507Z,2.77
2022-11-25T05:48:37.435Z,2.30
2022-11-25T05:51:40.304Z,2.27
2022-11-25T05:54:43.192Z,2.30
2022-11-25T05:57:46.097Z,2.67
2022-11-25T06:00:50.412Z,2.33
2022-11-25T06:03:53.404Z,2.00
2022-11-25T06:06:56.289Z,2.23
2022-11-25T06:10:03.056Z,2.50
2022-11-25T06:13:06.472Z,2.23
2022-11-25T06:16:12.716Z,2.37
2022-11-25T06:19:15.621Z,2.70
2022-11-25T06:22:18.504Z,2.77
2022-11-25T06:25:21.404Z,3.03
2022-11-25T06:28:24.307Z,2.63
2022-11-25T06:31:28.830Z,2.73
2022-11-25T06:34:31.799Z,2.90
2022-11-25T06:37:34.905Z,3.10
2022-11-25T06:40:37.836Z,2.93
2022-11-25T06:43:41.214Z,3.20
2022-11-25T06:46:45.502Z,3.47
2022-11-25T06:49:48.875Z,3.60
2022-11-25T06:52:51.753Z,3.17
2022-11-25T06:56:05.973Z,3.57
2022-11-25T06:59:08.865Z,3.10
2022-11-25T07:02:13.683Z,2.83
2022-11-25T07:05:16.702Z,2.87
2022-11-25T07:08:19.596Z,2.73
2022-11-25T07:11:24.648Z,3.60
2022-11-25T07:14:27.652Z,7.10
2022-11-25T07:17:31.880Z,5.13
2022-11-25T07:20:34.785Z,7.00
2022-11-25T07:23:38.529Z,6.57
2022-11-25T07:26:43.365Z,6.00
2022-11-25T07:30:18.803Z,5.77
2022-11-25T07:33:10.622Z,5.03
2022-11-25T07:36:15.782Z,4.53
2022-11-25T07:39:20.610Z,3.70
2022-11-25T07:42:23.496Z,3.13
2022-11-25T07:45:27.048Z,2.90
2022-11-25T07:48:31.797Z,3.10
2022-11-25T07:51:36.367Z,3.00
2022-11-25T07:54:39.273Z,4.43
2022-11-25T07:57:42.144Z,5.07
2022-11-25T08:00:45.067Z,10.97
2022-11-25T08:03:51.239Z,12.40
2022-11-25T08:06:54.476Z,9.53
2022-11-25T08:09:57.566Z,10.17
2022-11-25T08:13:00.620Z,12.23
2022-11-25T08:16:03.850Z,9.43
2022-11-25T08:19:11.506Z,11.27
2022-11-25T08:22:14.454Z,6.70
2022-11-25T08:25:17.388Z,3.30
2022-11-25T08:28:20.374Z,3.50
2022-11-25T08:31:25.834Z,4.10
2022-11-25T08:34:30.407Z,3.93
2022-11-25T08:37:33.458Z,3.50
2022-11-25T08:40:37.810Z,3.67
2022-11-25T08:43:41.433Z,4.13
2022-11-25T08:46:45.056Z,6.77
2022-11-25T08:49:51.987Z,6.40
2022-11-25T08:52:55.328Z,6.57
2022-11-25T08:55:58.286Z,4.17
2022-11-25T08:59:01.209Z,4.07
2022-11-25T09:02:04.512Z,3.33
2022-11-25T09:05:09.507Z,3.73
2022-11-25T09:08:13.157Z,2.97
2022-11-25T09:11:16.472Z,3.63
2022-11-25T09:14:19.882Z,3.13
2022-11-25T09:17:23.057Z,4.50
2022-11-25T09:20:27.511Z,3.70
2022-11-25T09:23:30.392Z,4.03
2022-11-25T09:26:35.686Z,4.27
2022-11-25T09:29:40.079Z,3.27
2022-11-25T09:32:43.367Z,3.03
2022-11-25T09:35:48.568Z,2.10
2022-11-25T09:38:53.000Z,2.10
2022-11-25T09:42:28.938Z,2.67
2022-11-25T09:45:56.699Z,1.97
2022-11-25T09:49:05.879Z,2.10
2022-11-25T09:52:18.844Z,2.07
2022-11-25T09:55:24.978Z,1.87
2022-11-25T09:58:34.318Z,2.37
2022-11-25T10:01:46.531Z,2.93
2022-11-25T10:04:57.311Z,2.13
2022-11-25T10:08:09.398Z,2.20
2022-11-25T10:11:29.400Z,1.87
2022-11-25T10:14:36.163Z,1.77
2022-11-25T10:17:44.789Z,1.53
2022-11-25T10:20:50.334Z,1.73
2022-11-25T10:23:54.914Z,0.93
2022-11-25T10:27:03.538Z,1.50
2022-11-25T10:30:14.433Z,0.87
2022-11-25T10:33:21.799Z,1.00
2022-11-25T10:36:27.886Z,1.40
2022-11-25T10:39:35.692Z,0.67
2022-11-25T10:42:38.987Z,0.80
2022-11-25T10:45:49.484Z,1.40
2022-11-25T10:49:01.541Z,0.80
2022-11-25T10:52:12.236Z,0.90
2022-11-25T10:55:19.943Z,0.93
2022-11-25T10:58:29.609Z,0.90
2022-11-25T11:01:32.614Z,0.80
2022-11-25T11:04:36.245Z,0.87
2022-11-25T11:07:42.453Z,1.07
2022-11-25T11:10:49.585Z,0.63
2022-11-25T11:14:14.657Z,0.63
2022-11-25T11:17:36.097Z,0.63
2022-11-25T11:20:46.323Z,0.90
2022-11-25T11:23:51.852Z,0.90
2022-11-25T11:27:06.890Z,0.70
2022-11-25T11:30:11.665Z,0.57
2022-11-25T11:33:33.765Z,0.90
2022-11-25T11:36:49.027Z,1.00
2022-11-25T11:40:03.698Z,0.80
2022-11-25T11:43:42.415Z,0.60
2022-11-25T11:47:02.592Z,0.83
2022-11-25T11:50:27.334Z,0.90
2022-11-25T11:53:35.492Z,0.90
2022-11-25T11:56:41.629Z,0.90
2022-11-25T11:59:49.747Z,0.70
2022-11-25T12:03:01.615Z,0.90
2022-11-25T12:06:07.180Z,0.67
2022-11-25T12:09:18.124Z,0.87
2022-11-25T12:12:26.315Z,0.90
2022-11-25T12:15:38.999Z,0.93
2022-11-25T12:18:50.510Z,1.13
2022-11-25T12:21:59.878Z,0.80
2022-11-25T12:25:09.123Z,0.60
2022-11-25T12:28:19.429Z,0.70
2022-11-25T12:31:25.879Z,0.47
2022-11-25T12:34:37.310Z,1.00
2022-11-25T12:37:45.584Z,0.87
2022-11-25T12:40:54.264Z,0.80
2022-11-25T12:44:01.457Z,1.10
2022-11-25T12:47:04.453Z,0.90
2022-11-25T12:50:16.930Z,0.70
2022-11-25T12:53:28.092Z,1.00
2022-11-25T12:56:46.499Z,0.90
2022-11-25T13:00:32.826Z,0.70
2022-11-25T13:03:47.956Z,0.90
2022-11-25T13:07:17.479Z,0.73
2022-11-25T13:10:44.325Z,1.53
2022-11-25T13:13:53.546Z,1.00
2022-11-25T13:16:58.256Z,0.90
2022-11-25T13:20:33.028Z,1.17
2022-11-25T13:23:50.303Z,0.87
2022-11-25T13:26:53.237Z,1.30
2022-11-25T13:29:56.468Z,0.93
2022-11-25T13:32:59.791Z,1.33
2022-11-25T13:36:17.725Z,0.67
2022-11-25T13:39:31.884Z,1.10
2022-11-25T13:42:34.877Z,1.00
2022-11-25T13:45:43.117Z,1.00
2022-11-25T13:48:46.357Z,1.50
2022-11-25T13:51:51.611Z,1.80
2022-11-25T13:54:57.535Z,1.90
2022-11-25T13:58:07.231Z,1.63
2022-11-25T14:01:31.083Z,1.87
2022-11-25T14:04:45.177Z,1.10
2022-11-25T14:07:57.690Z,1.23
2022-11-25T14:11:27.440Z,1.67
2022-11-25T14:14:49.914Z,1.50
2022-11-25T14:18:42.950Z,1.50
2022-11-25T14:22:04.791Z,1.67
2022-11-25T14:25:17.296Z,1.63
2022-11-25T14:28:31.897Z,1.80
2022-11-25T14:31:41.222Z,1.30
2022-11-25T14:34:48.779Z,1.70
2022-11-25T14:37:55.883Z,1.50
2022-11-25T14:41:04.998Z,2.07
2022-11-25T14:44:15.342Z,1.47
2022-11-25T14:47:23.517Z,1.60
2022-11-25T14:50:34.689Z,1.80
2022-11-25T14:53:47.350Z,1.40
2022-11-25T14:56:52.368Z,1.53
2022-11-25T14:59:59.464Z,1.70
2022-11-25T15:03:04.949Z,2.37
2022-11-25T15:06:08.413Z,2.83
2022-11-25T15:09:21.363Z,2.63
2022-11-25T15:12:29.855Z,2.60
2022-11-25T15:15:34.091Z,3.23
2022-11-25T15:18:39.204Z,2.60
2022-11-25T15:22:20.743Z,3.07
2022-11-25T15:25:14.081Z,3.47
2022-11-25T15:28:17.686Z,3.90
2022-11-25T15:31:22.970Z,3.97
2022-11-25T15:34:27.155Z,4.43
2022-11-25T15:37:30.267Z,3.90
2022-11-25T15:40:40.657Z,5.87
2022-11-25T15:43:48.028Z,6.33
2022-11-25T15:46:57.371Z,5.53
2022-11-25T15:50:03.313Z,4.57
2022-11-25T15:53:08.682Z,3.93
2022-11-25T15:56:16.914Z,4.00
2022-11-25T15:59:56.605Z,12.50
2022-11-25T16:03:04.099Z,8.03
2022-11-25T16:06:21.264Z,6.23
2022-11-25T16:09:28.615Z,6.33
2022-11-25T16:12:31.597Z,5.83
2022-11-25T16:15:44.834Z,4.07
2022-11-25T16:19:07.107Z,3.67
2022-11-25T16:22:15.065Z,7.13
2022-11-25T16:25:18.506Z,7.70
2022-11-25T16:28:22.360Z,8.77
2022-11-25T16:31:25.722Z,7.07
2022-11-25T16:34:30.797Z,6.17
2022-11-25T16:37:33.679Z,7.00
2022-11-25T16:40:38.057Z,6.67
2022-11-25T16:43:40.954Z,4.93
2022-11-25T16:46:43.968Z,3.70
2022-11-25T16:49:48.304Z,3.90
2022-11-25T16:52:51.174Z,4.83
2022-11-25T16:55:54.030Z,4.43
2022-11-25T16:58:58.122Z,3.03
2022-11-25T17:02:02.483Z,2.57
2022-11-25T17:05:18.054Z,3.63
2022-11-25T17:08:21.012Z,3.97
2022-11-25T17:11:29.352Z,4.13
2022-11-25T17:14:34.594Z,4.57
2022-11-25T17:17:37.722Z,4.10
2022-11-25T17:20:41.959Z,3.87
2022-11-25T17:23:45.724Z,4.27
2022-11-25T17:26:51.784Z,4.07
2022-11-25T17:29:55.574Z,4.23
2022-11-25T17:33:01.791Z,4.60
2022-11-25T17:36:06.751Z,3.93
2022-11-25T17:39:11.613Z,4.50
2022-11-25T17:42:16.577Z,3.60
2022-11-25T17:45:22.346Z,5.70
2022-11-25T17:48:25.606Z,4.97
2022-11-25T17:51:29.841Z,5.23
2022-11-25T17:54:32.778Z,7.03
2022-11-25T17:57:36.132Z,6.20
2022-11-25T18:00:42.364Z,6.37
2022-11-25T18:03:45.326Z,5.37
2022-11-25T18:06:49.614Z,5.20
2022-11-25T18:09:52.797Z,4.03
2022-11-25T18:12:57.335Z,4.70
2022-11-25T18:16:00.229Z,5.10
2022-11-25T18:19:03.383Z,4.43
2022-11-25T18:22:13.910Z,4.80
2022-11-25T18:25:18.651Z,7.03
2022-11-25T18:28:24.370Z,7.03
2022-11-25T18:31:28.789Z,7.30
2022-11-25T18:34:31.849Z,9.33
2022-11-25T18:37:36.167Z,6.63
2022-11-25T18:40:41.459Z,5.70
2022-11-25T18:43:44.390Z,5.73
2022-11-25T18:46:47.307Z,4.77
2022-11-25T18:49:55.556Z,6.10
2022-11-25T18:53:00.660Z,5.10
2022-11-25T18:56:03.791Z,6.47
2022-11-25T18:59:09.631Z,6.90
2022-11-25T19:02:16.733Z,7.77
2022-11-25T19:05:22.181Z,12.17
2022-11-25T19:08:26.815Z,9.70
2022-11-25T19:11:32.986Z,8.07
2022-11-25T19:14:38.165Z,7.50
2022-11-25T19:17:43.008Z,6.13
2022-11-25T19:20:45.939Z,5.27
2022-11-25T19:23:50.534Z,6.83
2022-11-25T19:26:56.936Z,8.30
2022-11-25T19:30:00.281Z,8.33
2022-11-25T19:33:03.721Z,9.53
2022-11-25T19:36:07.959Z,6.60
2022-11-25T19:39:18.045Z,6.70
2022-11-25T19:42:21.186Z,7.43
2022-11-25T19:45:24.157Z,7.63
2022-11-25T19:48:29.439Z,7.37
2022-11-25T19:51:34.726Z,8.43
2022-11-25T19:54:39.291Z,10.67
2022-11-25T19:57:42.528Z,11.13
2022-11-25T20:00:47.257Z,12.03
2022-11-25T20:03:52.173Z,9.00
2022-11-25T20:06:55.509Z,11.27
2022-11-25T20:10:04.007Z,7.70
2022-11-25T20:13:08.033Z,9.13
2022-11-25T20:16:17.069Z,7.47
2022-11-25T20:19:20.008Z,6.87
2022-11-25T20:22:27.883Z,6.03
2022-11-25T20:25:32.600Z,6.20
2022-11-25T20:28:35.483Z,5.83
2022-11-25T20:31:38.477Z,6.43
2022-11-25T20:34:42.315Z,5.57
2022-11-25T20:37:54.132Z,4.80
2022-11-25T20:41:00.639Z,6.67
2022-11-25T20:44:03.623Z,5.63
2022-11-25T20:47:14.444Z,6.90
2022-11-25T20:50:18.284Z,6.13
2022-11-25T20:53:23.093Z,6.73
2022-11-25T20:56:28.371Z,6.47
2022-11-25T20:59:31.986Z,5.53
2022-11-25T21:02:34.940Z,5.53
2022-11-25T21:05:37.960Z,5.27
2022-11-25T21:08:48.570Z,6.50
2022-11-25T21:11:52.808Z,5.73
2022-11-25T21:14:56.000Z,5.83
2022-11-25T21:17:59.658Z,5.27
2022-11-25T21:21:03.154Z,5.47
2022-11-25T21:24:11.303Z,5.87
2022-11-25T21:27:16.891Z,5.77
2022-11-25T21:30:21.334Z,5.03
2022-11-25T21:33:24.278Z,6.83
2022-11-25T21:36:30.451Z,6.60
2022-11-25T21:39:35.055Z,7.20
2022-11-25T21:42:39.358Z,7.20
2022-11-25T21:45:42.283Z,6.77
2022-11-25T21:48:45.429Z,7.43
2022-11-25T21:51:48.440Z,7.83
2022-11-25T21:54:51.344Z,6.90
2022-11-25T21:57:55.844Z,8.93
2022-11-25T22:01:01.614Z,7.07
2022-11-25T22:04:04.590Z,8.07
2022-11-25T22:07:07.524Z,8.80
2022-11-25T22:10:11.076Z,7.13
2022-11-25T22:13:18.113Z,6.97
2022-11-25T22:16:27.466Z,6.70
2022-11-25T22:19:30.475Z,6.97
2022-11-25T22:22:33.951Z,6.97
2022-11-25T22:25:36.853Z,6.93
2022-11-25T22:28:41.117Z,7.10
2022-11-25T22:31:44.925Z,7.30
2022-11-25T22:34:47.831Z,5.60
2022-11-25T22:37:55.181Z,6.67
2022-11-25T22:41:01.496Z,5.97
2022-11-25T22:44:06.110Z,7.17
2022-11-25T22:47:15.026Z,6.93
2022-11-25T22:50:22.676Z,6.70
2022-11-25T22:53:26.263Z,6.67
2022-11-25T22:56:29.143Z,5.90
2022-11-25T22:59:33.361Z,6.47
2022-11-25T23:02:37.038Z,6.10
2022-11-25T23:05:41.262Z,5.83
2022-11-25T23:08:44.229Z,5.23
2022-11-25T23:11:48.041Z,4.80
2022-11-25T23:14:52.288Z,4.30
2022-11-25T23:17:57.080Z,4.80
2022-11-25T23:21:00.149Z,5.43
2022-11-25T23:24:03.175Z,5.13
2022-11-25T23:27:06.090Z,5.17
2022-11-25T23:30:15.338Z,4.30
2022-11-25T23:33:22.668Z,6.17
2022-11-25T23:36:27.560Z,4.80
2022-11-25T23:39:30.426Z,5.07
2022-11-25T23:42:33.991Z,5.33
2022-11-25T23:45:38.454Z,4.67
2022-11-25T23:48:42.064Z,5.17
2022-11-25T23:51:45.078Z,4.23
2022-11-25T23:54:50.076Z,4.90
2022-11-25T23:57:53.264Z,5.40
